Time;durP1;ratioP1;P1;durP2;ratioP2;P2;SDS_P1;SDS_P2;PMS_P1;PMS_P2;Temp;Humidity;BMP_temperature;BMP_pressure;BME280_temperature;BME280_humidity;BME280_pressure;Samples;Min_cycle;Max_cycle;Signal;HPM_P1;HPM_P2
2023/06/24 00:05:00;;;;;;;8.00;5.30;;;;;;;17.49;73.25;99580.84;436335;1250;139357;-60
2023/06/24 00:15:04;;;;;;;5.70;5.20;;;;;;;17.41;73.63;99611.83;436255;1254;139728;-61
2023/06/24 00:25:08;;;;;;;5.60;5.10;;;;;;;17.35;74.42;99625.41;436322;1253;139686;-61
2023/06/24 00:35:13;;;;;;;7.50;5.90;;;;;;;17.29;75.03;99629.77;436655;1253;139311;-61
2023/06/24 00:45:17;;;;;;;6.30;4.70;;;;;;;17.21;75.56;99635.09;436415;1251;139717;-60
2023/06/24 00:55:21;;;;;;;7.90;5.60;;;;;;;17.15;75.79;99630.66;436476;1253;140839;-61
2023/06/24 01:05:25;;;;;;;6.60;5.30;;;;;;;17.07;76.25;99626.77;436420;1253;140308;-61
2023/06/24 01:15:29;;;;;;;5.70;5.20;;;;;;;16.99;76.25;99610.53;436469;1253;140145;-61
2023/06/24 01:25:49;;;;;;;7.60;4.80;;;;;;;16.92;75.41;99610.08;436223;1254;139844;-61
2023/06/24 01:35:53;;;;;;;5.10;4.40;;;;;;;16.89;74.75;99612.61;436288;1251;139664;-61
2023/06/24 01:45:57;;;;;;;7.60;4.10;;;;;;;16.92;74.47;99633.61;436285;1251;140828;-60
2023/06/24 01:56:02;;;;;;;5.50;5.00;;;;;;;16.96;74.29;99652.52;436543;1250;140255;-60
2023/06/24 02:06:06;;;;;;;5.10;4.50;;;;;;;16.95;74.33;99668.98;436480;1251;140494;-61
2023/06/24 02:16:11;;;;;;;7.90;5.90;;;;;;;16.89;74.51;99675.59;436851;1251;139916;-61
2023/06/24 02:26:15;;;;;;;8.50;4.80;;;;;;;16.82;75.19;99681.46;436608;1251;141024;-60
2023/06/24 02:36:18;;;;;;;4.90;4.40;;;;;;;16.73;75.93;99689.33;436906;1253;140320;-61
2023/06/24 02:46:22;;;;;;;6.00;5.40;;;;;;;16.71;76.69;99705.79;436390;1251;140445;-60
2023/06/24 02:56:27;;;;;;;6.80;5.50;;;;;;;16.69;77.64;99711.95;436909;1251;140022;-60
2023/06/24 03:06:32;;;;;;;6.60;5.60;;;;;;;16.69;78.55;99708.80;436508;1253;139197;-60
2023/06/24 03:16:35;;;;;;;8.00;7.10;;;;;;;16.70;79.68;99717.21;436562;1250;139442;-60
2023/06/24 03:26:39;;;;;;;7.20;6.50;;;;;;;16.73;81.17;99724.84;436359;1250;140210;-60
2023/06/24 03:36:42;;;;;;;7.80;7.00;;;;;;;16.72;82.36;99731.98;436636;1251;140607;-61
2023/06/24 03:46:45;;;;;;;7.80;7.10;;;;;;;16.75;83.66;99733.00;436497;1251;139953;-61
2023/06/24 03:56:48;;;;;;;7.30;6.50;;;;;;;16.84;84.51;99724.09;436361;1254;140240;-61
2023/06/24 04:06:51;;;;;;;8.40;7.60;;;;;;;17.00;85.30;99728.33;436300;1254;140072;-60
2023/06/24 04:16:55;;;;;;;9.80;8.10;;;;;;;17.16;85.67;99734.67;436506;1251;139836;-61
2023/06/24 04:26:58;;;;;;;12.60;10.00;;;;;;;17.30;85.79;99741.78;436434;1250;139394;-61
2023/06/24 04:37:01;;;;;;;13.50;8.90;;;;;;;17.43;85.85;99748.95;436146;1251;140427;-61
2023/06/24 04:47:05;;;;;;;9.80;8.90;;;;;;;17.57;85.89;99763.14;436467;1250;139203;-61
2023/06/24 04:57:10;;;;;;;8.30;7.60;;;;;;;17.77;85.67;99775.48;436363;1250;139725;-60
2023/06/24 05:07:13;;;;;;;10.10;9.00;;;;;;;17.85;85.50;99785.86;436606;1253;139414;-61
2023/06/24 05:17:16;;;;;;;11.60;9.40;;;;;;;17.99;85.82;99797.76;436459;1251;139794;-61
2023/06/24 05:27:20;;;;;;;11.50;10.30;;;;;;;17.93;85.97;99815.84;436293;1251;141012;-61
2023/06/24 05:37:23;;;;;;;14.40;10.50;;;;;;;17.85;86.34;99824.70;436723;1253;139449;-61
2023/06/24 05:47:26;;;;;;;11.00;10.00;;;;;;;17.86;86.59;99828.85;436178;1253;139524;-61
2023/06/24 05:57:29;;;;;;;10.80;9.70;;;;;;;18.13;86.80;99832.11;436649;1253;140793;-60
2023/06/24 06:07:32;;;;;;;13.60;12.20;;;;;;;18.42;86.67;99845.53;436503;1251;139254;-61
2023/06/24 06:17:35;;;;;;;12.40;11.10;;;;;;;18.69;86.49;99854.39;436614;1255;139507;-68
2023/06/24 06:27:38;;;;;;;12.30;11.00;;;;;;;18.85;86.17;99865.64;436667;1254;140260;-67
2023/06/24 06:37:41;;;;;;;12.90;11.60;;;;;;;18.96;85.60;99871.39;436275;1250;140356;-68
2023/06/24 06:47:44;;;;;;;12.20;10.80;;;;;;;19.12;85.34;99880.23;436708;1251;140613;-66
2023/06/24 06:57:47;;;;;;;11.90;9.80;;;;;;;19.16;85.17;99883.91;436237;1251;140509;-64
2023/06/24 07:07:51;;;;;;;13.80;11.40;;;;;;;19.32;85.12;99883.83;436356;1251;140086;-65
2023/06/24 07:17:54;;;;;;;12.20;11.00;;;;;;;19.35;84.57;99884.00;436469;1253;139533;-60
2023/06/24 07:27:57;;;;;;;9.30;8.40;;;;;;;19.30;83.75;99877.45;436587;1253;146521;-59
2023/06/24 07:38:01;;;;;;;11.20;10.00;;;;;;;19.28;82.93;99883.13;436660;1255;141011;-62
2023/06/24 07:48:06;;;;;;;11.00;9.00;;;;;;;19.36;82.75;99889.13;436530;1253;139458;-59
2023/06/24 07:58:09;;;;;;;11.20;10.00;;;;;;;19.45;82.37;99894.48;436694;1253;140904;-61
2023/06/24 08:08:12;;;;;;;11.60;10.20;;;;;;;19.40;82.44;99902.90;436523;1255;140378;-59
2023/06/24 08:18:15;;;;;;;10.90;9.80;;;;;;;19.33;83.07;99917.42;436258;1254;140615;-59
2023/06/24 08:28:18;;;;;;;9.30;8.40;;;;;;;19.21;82.55;99932.26;436570;1254;140519;-59
2023/06/24 08:38:21;;;;;;;8.80;7.90;;;;;;;19.11;81.24;99943.63;436392;1251;139782;-59
2023/06/24 08:48:26;;;;;;;11.20;8.10;;;;;;;19.12;80.29;99945.50;436390;1253;141214;-59
2023/06/24 08:58:29;;;;;;;8.00;7.00;;;;;;;19.48;79.97;99952.97;436569;1255;140333;-59
2023/06/24 09:08:35;;;;;;;8.40;7.60;;;;;;;20.26;78.57;99957.35;436200;1253;140235;-59
2023/06/24 09:18:38;;;;;;;8.20;6.20;;;;;;;20.68;76.09;99956.27;436666;1254;140988;-59
2023/06/24 09:28:41;;;;;;;6.70;6.10;;;;;;;20.86;74.61;99964.59;436456;1254;140699;-59
2023/06/24 09:38:44;;;;;;;7.30;6.70;;;;;;;21.41;74.43;99968.43;436460;1254;139243;-59
2023/06/24 09:48:47;;;;;;;6.50;5.90;;;;;;;21.93;72.76;99957.70;436833;1255;140756;-59
2023/06/24 09:58:51;;;;;;;6.70;5.50;;;;;;;22.39;71.23;99963.85;436396;1256;139109;-60
2023/06/24 10:08:54;;;;;;;5.40;4.90;;;;;;;22.82;69.63;99965.19;436621;1254;140685;-60
2023/06/24 10:19:02;;;;;;;5.90;5.40;;;;;;;23.06;67.28;99969.29;436426;1256;139868;-59
2023/06/24 10:29:15;;;;;;;6.30;3.90;;;;;;;23.14;66.01;99969.33;436531;1251;140578;-60
2023/06/24 10:39:48;;;;;;;6.20;3.20;;;;;;;23.21;63.42;99962.70;436438;1251;140063;-60
2023/06/24 10:49:52;;;;;;;4.70;3.20;;;;;;;23.45;62.26;99963.70;436529;1255;138653;-60
2023/06/24 10:59:56;;;;;;;9.10;4.10;;;;;;;23.63;60.80;99961.42;436914;1255;138965;-61
2023/06/24 11:10:03;;;;;;;8.60;4.40;;;;;;;23.72;59.97;99963.92;436724;1256;139855;-59
2023/06/24 11:20:09;;;;;;;5.60;5.00;;;;;;;23.65;59.73;99967.30;436634;1253;138867;-59
2023/06/24 11:30:14;;;;;;;4.80;4.40;;;;;;;23.37;59.19;99973.17;436336;1251;139378;-59
2023/06/24 11:40:20;;;;;;;4.50;4.20;;;;;;;22.89;58.96;99984.19;436434;1255;139460;-59
2023/06/24 11:50:27;;;;;;;5.80;4.60;;;;;;;22.47;59.53;99985.27;436374;1251;140877;-59
2023/06/24 12:00:32;;;;;;;6.40;5.20;;;;;;;21.88;61.70;99988.84;436812;1255;139111;-59
2023/06/24 12:10:37;;;;;;;6.60;5.50;;;;;;;21.28;63.43;99993.35;437244;1254;139203;-67
2023/06/24 12:20:40;;;;;;;6.10;5.60;;;;;;;20.58;64.92;99997.77;436738;1254;139142;-65
2023/06/24 12:30:44;;;;;;;6.50;5.80;;;;;;;19.89;67.35;100007.62;436525;1257;140381;-66
2023/06/24 12:40:48;;;;;;;7.10;6.40;;;;;;;19.36;69.17;100006.25;436563;1257;140137;-66
2023/06/24 12:50:53;;;;;;;6.20;5.40;;;;;;;19.13;71.56;100007.65;436804;1255;139671;-65
2023/06/24 13:00:56;;;;;;;7.10;6.20;;;;;;;18.98;72.91;100010.13;436877;1254;142058;-66
2023/06/24 13:10:59;;;;;;;9.40;7.30;;;;;;;19.01;73.99;100005.80;437022;1254;139279;-66
2023/06/24 13:21:03;;;;;;;7.90;6.50;;;;;;;19.55;74.90;99997.04;436430;1256;141109;-66
2023/06/24 13:31:18;;;;;;;10.30;7.50;;;;;;;19.89;74.07;99998.21;436518;1254;141045;-64
2023/06/24 13:41:21;;;;;;;7.50;6.50;;;;;;;20.16;74.07;99993.13;436768;1251;139491;-66
2023/06/24 13:51:25;;;;;;;10.40;6.70;;;;;;;20.19;73.78;99989.89;436793;1251;139115;-67
2023/06/24 14:01:28;;;;;;;7.90;7.10;;;;;;;20.18;73.86;99986.22;436739;1251;139768;-66
2023/06/24 14:11:31;;;;;;;8.50;6.70;;;;;;;20.46;73.65;99970.46;436428;1255;139606;-65
2023/06/24 14:21:35;;;;;;;6.90;6.10;;;;;;;21.30;72.96;99961.55;436352;1254;140574;-65
2023/06/24 14:31:38;;;;;;;8.00;7.00;;;;;;;21.69;71.06;99950.58;436417;1254;139234;-64
2023/06/24 14:41:41;;;;;;;8.20;5.90;;;;;;;21.97;70.57;99944.04;436402;1251;140461;-64
2023/06/24 14:51:45;;;;;;;6.90;6.10;;;;;;;22.11;69.74;99941.14;435938;1252;139931;-64
2023/06/24 15:01:48;;;;;;;6.60;5.40;;;;;;;22.12;69.09;99931.09;435908;1251;139653;-65
2023/06/24 15:11:51;;;;;;;5.80;5.30;;;;;;;22.25;68.17;99921.37;436380;1253;140122;-69
2023/06/24 15:21:54;;;;;;;8.30;6.60;;;;;;;22.24;67.75;99916.12;436424;1254;139215;-67
2023/06/24 15:31:57;;;;;;;6.90;6.20;;;;;;;22.11;67.79;99913.14;436803;1254;140093;-69
2023/06/24 15:42:00;;;;;;;7.00;5.50;;;;;;;21.73;67.57;99903.80;437034;1251;139021;-68
2023/06/24 15:52:04;;;;;;;7.20;6.00;;;;;;;21.50;67.93;99901.84;436522;1251;139258;-68
2023/06/24 16:02:08;;;;;;;6.80;5.80;;;;;;;21.38;68.32;99899.13;442604;1251;139398;-61
2023/06/24 16:12:11;;;;;;;9.50;6.00;;;;;;;21.36;68.48;99893.48;436444;1251;140261;-61
2023/06/24 16:22:14;;;;;;;9.70;5.50;;;;;;;21.25;68.19;99887.65;436308;1254;139189;-61
2023/06/24 16:32:17;;;;;;;6.70;6.10;;;;;;;21.10;68.11;99884.16;436651;1254;140251;-61
2023/06/24 16:42:21;;;;;;;6.30;5.40;;;;;;;21.08;68.43;99882.77;436624;1250;139666;-61
2023/06/24 16:52:24;;;;;;;7.00;6.30;;;;;;;21.07;68.77;99878.15;436670;1251;139128;-62
2023/06/24 17:02:28;;;;;;;8.10;6.60;;;;;;;21.03;68.96;99875.66;436598;1251;140197;-61
2023/06/24 17:12:31;;;;;;;6.70;6.00;;;;;;;20.89;69.15;99867.81;436389;1251;139764;-61
2023/06/24 17:22:34;;;;;;;7.90;6.40;;;;;;;20.81;69.73;99865.48;436327;1251;139119;-61
2023/06/24 17:32:37;;;;;;;7.50;6.70;;;;;;;20.76;70.07;99861.67;436349;1251;139858;-61
2023/06/24 17:42:40;;;;;;;9.60;5.70;;;;;;;20.52;70.64;99852.48;436638;1251;140256;-62
2023/06/24 17:52:43;;;;;;;6.90;6.10;;;;;;;20.33;71.54;99857.88;436394;1251;139170;-61
2023/06/24 18:02:46;;;;;;;7.20;6.00;;;;;;;20.47;71.93;99855.36;436190;1254;141316;-62
2023/06/24 18:12:49;;;;;;;7.90;6.70;;;;;;;20.53;71.68;99858.13;436381;1254;139221;-61
2023/06/24 18:22:52;;;;;;;7.40;6.40;;;;;;;19.91;72.70;99856.81;436343;1254;139659;-61
2023/06/24 18:32:55;;;;;;;7.70;7.00;;;;;;;19.47;73.91;99861.09;436290;1251;140376;-62
2023/06/24 18:42:58;;;;;;;8.00;7.30;;;;;;;19.10;75.35;99865.98;436637;1254;140850;-61
2023/06/24 18:53:01;;;;;;;10.50;8.60;;;;;;;18.76;76.62;99868.84;436689;1251;139232;-60
2023/06/24 19:03:04;;;;;;;10.00;9.10;;;;;;;18.41;77.86;99872.42;436778;1251;139611;-62
2023/06/24 19:13:07;;;;;;;11.60;9.90;;;;;;;18.09;79.02;99882.10;436906;1251;140663;-63
2023/06/24 19:23:10;;;;;;;11.30;10.00;;;;;;;17.75;80.54;99885.24;436330;1251;139534;-62
2023/06/24 19:33:13;;;;;;;17.90;12.60;;;;;;;17.42;81.81;99883.90;436353;1254;156484;-61
2023/06/24 19:43:16;;;;;;;15.30;10.40;;;;;;;17.14;82.86;99880.87;436333;1254;140124;-61
2023/06/24 19:53:19;;;;;;;12.70;10.50;;;;;;;16.87;83.92;99885.80;436704;1254;139574;-61
2023/06/24 20:03:22;;;;;;;15.20;11.20;;;;;;;16.62;84.82;99880.41;436556;1250;139671;-65
2023/06/24 20:13:25;;;;;;;14.90;11.80;;;;;;;16.40;85.52;99878.03;436812;1254;140096;-61
2023/06/24 20:23:28;;;;;;;12.40;11.30;;;;;;;16.22;86.36;99875.85;436774;1251;139590;-63
2023/06/24 20:33:32;;;;;;;13.40;11.30;;;;;;;16.01;87.11;99875.91;436543;1253;140830;-62
2023/06/24 20:43:35;;;;;;;12.20;11.00;;;;;;;15.85;88.11;99873.54;436885;1254;141107;-62
2023/06/24 20:53:39;;;;;;;13.80;12.30;;;;;;;15.69;88.74;99869.13;436584;1250;140165;-63
2023/06/24 21:03:42;;;;;;;11.80;10.70;;;;;;;15.56;89.62;99866.46;436372;1254;139507;-62
2023/06/24 21:13:45;;;;;;;14.20;12.60;;;;;;;15.45;90.00;99859.64;436621;1251;140042;-63
2023/06/24 21:23:48;;;;;;;15.70;12.90;;;;;;;15.30;90.45;99859.18;436941;1250;140635;-63
2023/06/24 21:33:51;;;;;;;14.70;12.80;;;;;;;15.13;90.63;99859.99;436784;1251;140742;-62
2023/06/24 21:43:55;;;;;;;15.60;13.20;;;;;;;15.00;91.38;99860.98;436751;1251;140472;-62
2023/06/24 21:53:59;;;;;;;18.10;14.20;;;;;;;14.84;91.32;99860.66;437020;1253;139489;-61
2023/06/24 22:04:02;;;;;;;15.10;13.10;;;;;;;14.72;91.68;99866.31;436116;1254;141011;-61
2023/06/24 22:14:05;;;;;;;14.60;12.80;;;;;;;14.64;91.97;99867.77;436097;1251;140335;-61
2023/06/24 22:24:08;;;;;;;15.80;13.60;;;;;;;14.66;93.23;99871.16;436388;1254;139332;-62
2023/06/24 22:34:12;;;;;;;15.90;14.30;;;;;;;14.64;93.50;99871.45;436457;1251;140400;-60
2023/06/24 22:44:15;;;;;;;13.10;11.60;;;;;;;14.56;93.50;99863.27;436543;1251;141074;-60
2023/06/24 22:54:18;;;;;;;12.90;11.50;;;;;;;14.43;93.56;99860.05;436257;1251;139611;-61
2023/06/24 23:04:23;;;;;;;14.30;12.80;;;;;;;14.33;93.52;99852.30;436455;1250;139432;-62
2023/06/24 23:14:27;;;;;;;14.60;13.10;;;;;;;14.31;93.92;99853.39;436359;1254;139499;-61
2023/06/24 23:24:31;;;;;;;15.70;14.10;;;;;;;14.25;94.50;99847.83;436664;1250;140693;-61
2023/06/24 23:34:35;;;;;;;12.80;11.40;;;;;;;14.11;94.55;99848.71;436604;1254;139602;-61
2023/06/24 23:44:40;;;;;;;12.60;11.30;;;;;;;13.93;94.01;99846.98;436649;1254;140346;-61
2023/06/24 23:54:43;;;;;;;14.80;13.00;;;;;;;13.81;94.05;99849.64;436336;1251;141544;-61
